createdAt,value
2022-11-22T00:00:51.340Z,16.80
2022-11-22T00:03:21.163Z,15.77
2022-11-22T00:05:50.868Z,16.97
2022-11-22T00:08:23.271Z,16.67
2022-11-22T00:10:53.497Z,15.93
2022-11-22T00:13:23.715Z,16.07
2022-11-22T00:16:01.894Z,15.37
2022-11-22T00:18:31.938Z,15.73
2022-11-22T00:21:07.848Z,15.77
2022-11-22T00:23:40.296Z,15.93
2022-11-22T00:26:12.304Z,16.10
2022-11-22T00:28:42.580Z,15.87
2022-11-22T00:31:12.412Z,16.10
2022-11-22T00:33:42.159Z,16.23
2022-11-22T00:36:11.849Z,15.87
2022-11-22T00:38:44.145Z,16.97
2022-11-22T00:41:13.853Z,16.90
2022-11-22T00:43:43.610Z,16.20
2022-11-22T00:46:13.344Z,17.23
2022-11-22T00:48:43.051Z,16.90
2022-11-22T00:51:12.983Z,18.27
2022-11-22T00:53:45.332Z,18.63
2022-11-22T00:56:15.033Z,17.10
2022-11-22T00:58:44.764Z,17.37
2022-11-22T01:01:15.683Z,16.87
2022-11-22T01:03:45.420Z,18.17
2022-11-22T01:06:15.148Z,16.83
2022-11-22T01:08:47.489Z,17.40
2022-11-22T01:11:20.398Z,17.53
2022-11-22T01:13:50.218Z,18.53
2022-11-22T01:16:20.294Z,18.67
2022-11-22T01:18:50.064Z,17.67
2022-11-22T01:21:19.848Z,19.33
2022-11-22T01:23:52.296Z,17.53
2022-11-22T01:26:22.055Z,17.73
2022-11-22T01:28:51.825Z,18.20
2022-11-22T01:31:21.723Z,18.20
2022-11-22T01:33:51.460Z,18.03
2022-11-22T01:36:21.234Z,18.80
2022-11-22T01:38:53.652Z,18.97
2022-11-22T01:41:23.407Z,19.93
2022-11-22T01:43:53.392Z,20.07
2022-11-22T01:46:32.972Z,19.93
2022-11-22T01:49:05.865Z,20.10
2022-11-22T01:51:38.592Z,19.10
2022-11-22T01:54:14.997Z,21.20
2022-11-22T01:56:47.538Z,19.97
2022-11-22T01:59:20.428Z,20.10
2022-11-22T02:01:50.226Z,21.63
2022-11-22T02:04:21.878Z,20.67
2022-11-22T02:07:00.219Z,21.83
2022-11-22T02:09:33.409Z,20.37
2022-11-22T02:12:06.708Z,19.53
2022-11-22T02:14:37.628Z,21.50
2022-11-22T02:17:07.468Z,21.47
2022-11-22T02:19:43.614Z,21.77
2022-11-22T02:22:26.575Z,21.50
2022-11-22T02:25:05.065Z,19.27
2022-11-22T02:27:37.511Z,20.97
2022-11-22T02:30:08.520Z,20.93
2022-11-22T02:32:38.236Z,21.60
2022-11-22T02:35:20.717Z,20.13
2022-11-22T02:37:52.363Z,20.47
2022-11-22T02:40:23.208Z,22.23
2022-11-22T02:43:00.483Z,21.00
2022-11-22T02:45:30.408Z,20.47
2022-11-22T02:48:08.116Z,20.97
2022-11-22T02:50:38.171Z,21.70
2022-11-22T02:53:09.108Z,21.43
2022-11-22T02:55:39.761Z,20.37
2022-11-22T02:58:12.235Z,21.53
2022-11-22T03:00:42.181Z,20.13
2022-11-22T03:03:12.301Z,20.70
2022-11-22T03:05:42.135Z,20.70
2022-11-22T03:08:11.832Z,19.40
2022-11-22T03:10:41.534Z,18.67
2022-11-22T03:13:13.856Z,19.47
2022-11-22T03:15:45.454Z,18.07
2022-11-22T03:18:15.128Z,19.03
2022-11-22T03:20:44.894Z,19.80
2022-11-22T03:23:14.641Z,18.63
2022-11-22T03:25:44.411Z,17.83
2022-11-22T03:28:16.700Z,18.73
2022-11-22T03:30:46.430Z,17.70
2022-11-22T03:33:16.660Z,18.80
2022-11-22T03:35:46.383Z,19.63
2022-11-22T03:38:16.175Z,17.67
2022-11-22T03:40:49.267Z,19.07
2022-11-22T03:43:21.750Z,17.10
2022-11-22T03:45:51.599Z,17.23
2022-11-22T03:48:21.613Z,17.20
2022-11-22T03:50:51.369Z,17.70
2022-11-22T03:53:21.089Z,16.67
2022-11-22T03:55:50.913Z,16.00
2022-11-22T03:58:24.381Z,16.90
2022-11-22T04:00:54.103Z,15.07
2022-11-22T04:03:23.803Z,16.90
2022-11-22T04:05:53.502Z,17.13
2022-11-22T04:08:24.148Z,17.27
2022-11-22T04:10:54.785Z,15.83
2022-11-22T04:13:48.082Z,15.73
2022-11-22T04:16:15.189Z,16.17
2022-11-22T04:18:44.967Z,16.77
2022-11-22T04:21:27.201Z,15.93
2022-11-22T04:24:09.411Z,17.13
2022-11-22T04:26:39.696Z,16.57
2022-11-22T04:29:12.287Z,16.30
2022-11-22T04:31:54.520Z,15.63
2022-11-22T04:34:24.887Z,16.83
2022-11-22T04:36:55.218Z,15.63
2022-11-22T04:39:25.015Z,15.50
2022-11-22T04:42:16.209Z,14.87
2022-11-22T04:44:47.040Z,15.60
2022-11-22T04:47:41.549Z,15.03
2022-11-22T04:50:25.332Z,15.63
2022-11-22T04:52:57.790Z,15.60
2022-11-22T04:55:28.032Z,17.27
2022-11-22T04:58:00.011Z,16.30
2022-11-22T05:00:33.877Z,15.13
2022-11-22T05:03:04.396Z,15.33
2022-11-22T05:05:34.253Z,16.60
2022-11-22T05:08:04.150Z,14.27
2022-11-22T05:10:54.675Z,14.77
2022-11-22T05:13:26.650Z,16.13
2022-11-22T05:16:00.834Z,15.87
2022-11-22T05:18:31.890Z,15.43
2022-11-22T05:21:02.573Z,15.77
2022-11-22T05:23:44.684Z,15.83
2022-11-22T05:26:14.607Z,14.17
2022-11-22T05:28:44.447Z,15.13
2022-11-22T05:31:18.206Z,15.43
2022-11-22T05:33:48.880Z,15.60
2022-11-22T05:36:18.796Z,16.07
2022-11-22T05:38:48.593Z,14.47
2022-11-22T05:41:19.494Z,14.93
2022-11-22T05:43:49.270Z,12.93
2022-11-22T05:46:25.073Z,13.60
2022-11-22T05:48:57.271Z,13.60
2022-11-22T05:51:34.124Z,13.33
2022-11-22T05:54:04.850Z,13.43
2022-11-22T05:56:34.572Z,14.23
2022-11-22T05:59:04.614Z,13.67
2022-11-22T06:01:37.044Z,13.87
2022-11-22T06:04:09.291Z,14.13
2022-11-22T06:06:38.979Z,14.57
2022-11-22T06:09:08.698Z,14.03
2022-11-22T06:11:38.511Z,15.27
2022-11-22T06:14:12.151Z,14.97
2022-11-22T06:16:44.586Z,14.20
2022-11-22T06:19:14.502Z,13.60
2022-11-22T06:21:44.203Z,13.37
2022-11-22T06:24:14.348Z,13.10
2022-11-22T06:26:45.246Z,12.60
2022-11-22T06:29:15.161Z,12.93
2022-11-22T06:31:49.667Z,14.03
2022-11-22T06:34:19.606Z,14.30
2022-11-22T06:36:49.417Z,13.97
2022-11-22T06:39:19.561Z,14.27
2022-11-22T06:41:49.443Z,14.13
2022-11-22T06:44:19.196Z,14.07
2022-11-22T06:46:51.660Z,13.77
2022-11-22T06:49:21.532Z,12.70
2022-11-22T06:51:51.384Z,13.30
2022-11-22T06:54:21.195Z,13.07
2022-11-22T06:56:50.881Z,14.10
2022-11-22T06:59:20.671Z,13.13
2022-11-22T07:01:53.047Z,13.97
2022-11-22T07:04:22.944Z,13.37
2022-11-22T07:06:52.678Z,12.97
2022-11-22T07:09:22.732Z,14.13
2022-11-22T07:11:52.580Z,14.47
2022-11-22T07:14:22.592Z,12.83
2022-11-22T07:16:54.955Z,13.07
2022-11-22T07:19:24.651Z,12.97
2022-11-22T07:21:55.377Z,13.50
2022-11-22T07:24:25.061Z,14.33
2022-11-22T07:26:54.747Z,12.93
2022-11-22T07:29:24.455Z,12.03
2022-11-22T07:31:56.800Z,12.70
2022-11-22T07:34:26.569Z,12.20
2022-11-22T07:37:00.485Z,13.53
2022-11-22T07:39:32.596Z,11.93
2022-11-22T07:42:02.442Z,12.37
2022-11-22T07:44:32.832Z,12.73
2022-11-22T07:47:08.320Z,12.20
2022-11-22T07:49:39.353Z,12.03
2022-11-22T07:52:09.848Z,11.90
2022-11-22T07:54:39.598Z,10.47
2022-11-22T07:57:09.420Z,13.57
2022-11-22T07:59:39.140Z,12.40
2022-11-22T08:02:14.116Z,11.03
2022-11-22T08:04:43.936Z,10.03
2022-11-22T08:07:13.993Z,11.60
2022-11-22T08:09:44.403Z,10.40
2022-11-22T08:12:14.338Z,11.80
2022-11-22T08:14:44.098Z,10.97
2022-11-22T08:17:16.618Z,10.03
2022-11-22T08:19:46.497Z,9.27
2022-11-22T08:22:16.207Z,10.00
2022-11-22T08:24:45.910Z,8.30
2022-11-22T08:27:15.628Z,8.73
2022-11-22T08:29:45.349Z,8.70
2022-11-22T08:32:17.708Z,8.70
2022-11-22T08:34:47.613Z,7.17
2022-11-22T08:37:17.413Z,7.53
2022-11-22T08:39:47.328Z,6.33
2022-11-22T08:42:17.031Z,6.40
2022-11-22T08:44:46.759Z,6.20
2022-11-22T08:47:19.220Z,6.93
2022-11-22T08:49:49.025Z,6.23
2022-11-22T08:52:18.767Z,5.70
2022-11-22T08:54:49.668Z,5.60
2022-11-22T08:57:19.480Z,5.73
2022-11-22T08:59:49.230Z,5.23
2022-11-22T09:02:21.600Z,4.90
2022-11-22T09:04:51.322Z,5.17
2022-11-22T09:10:13.727Z,5.17
2022-11-22T09:12:46.518Z,5.20
2022-11-22T09:15:17.005Z,5.30
2022-11-22T09:17:49.468Z,5.50
2022-11-22T09:20:20.235Z,5.43
2022-11-22T09:22:50.018Z,5.27
2022-11-22T09:25:20.035Z,4.90
2022-11-22T09:27:49.761Z,5.43
2022-11-22T09:30:19.667Z,4.90
2022-11-22T09:32:52.019Z,4.87
2022-11-22T09:35:21.845Z,4.27
2022-11-22T09:37:51.904Z,4.40
2022-11-22T09:40:21.736Z,4.23
2022-11-22T09:43:08.540Z,4.50
2022-11-22T09:46:05.603Z,4.47
2022-11-22T09:49:07.225Z,4.90
2022-11-22T09:51:42.640Z,3.80
2022-11-22T09:54:16.381Z,4.33
2022-11-22T09:56:47.069Z,4.17
2022-11-22T09:59:21.267Z,4.03
2022-11-22T10:01:54.684Z,4.00
2022-11-22T10:04:30.328Z,4.17
2022-11-22T10:07:04.518Z,4.40
2022-11-22T10:09:39.719Z,4.30
2022-11-22T10:12:17.889Z,4.20
2022-11-22T10:14:51.906Z,4.03
2022-11-22T10:17:31.554Z,4.70
2022-11-22T10:20:09.319Z,3.67
2022-11-22T10:22:39.083Z,4.73
2022-11-22T10:25:18.879Z,4.73
2022-11-22T10:27:57.654Z,5.30
2022-11-22T10:30:35.717Z,4.70
2022-11-22T10:33:15.416Z,5.30
2022-11-22T10:36:00.749Z,5.00
2022-11-22T10:38:51.040Z,5.33
2022-11-22T10:41:37.394Z,4.67
2022-11-22T10:44:18.239Z,4.43
2022-11-22T10:46:58.990Z,4.60
2022-11-22T10:49:42.681Z,4.27
2022-11-22T10:52:25.323Z,3.67
2022-11-22T10:55:05.084Z,4.00
2022-11-22T10:57:41.782Z,3.63
2022-11-22T11:00:22.603Z,4.07
2022-11-22T11:03:27.526Z,3.83
2022-11-22T11:11:50.401Z,3.27
2022-11-22T11:14:30.925Z,3.17
2022-11-22T11:17:03.011Z,3.20
2022-11-22T11:19:37.116Z,3.13
2022-11-22T11:22:42.627Z,2.70
2022-11-22T11:25:33.375Z,3.03
2022-11-22T11:28:07.713Z,2.80
2022-11-22T11:30:43.047Z,2.97
2022-11-22T11:33:30.846Z,2.97
2022-11-22T11:36:06.345Z,3.07
2022-11-22T11:38:39.614Z,3.30
2022-11-22T11:41:29.216Z,3.47
2022-11-22T11:44:00.717Z,2.70
2022-11-22T11:46:32.439Z,2.33
2022-11-22T11:49:17.651Z,2.40
2022-11-22T11:51:49.384Z,2.97
2022-11-22T11:54:22.198Z,2.77
2022-11-22T11:56:56.117Z,2.60
2022-11-22T11:59:29.479Z,2.53
2022-11-22T12:02:05.597Z,2.80
2022-11-22T12:04:39.079Z,3.30
2022-11-22T12:07:22.118Z,2.83
2022-11-22T12:09:53.828Z,2.97
2022-11-22T12:12:48.320Z,2.97
2022-11-22T12:15:26.293Z,2.57
2022-11-22T12:18:00.027Z,2.43
2022-11-22T12:20:41.494Z,2.57
2022-11-22T12:23:21.524Z,2.50
2022-11-22T12:25:53.055Z,2.30
2022-11-22T12:28:28.246Z,2.43
2022-11-22T12:31:02.838Z,2.30
2022-11-22T12:33:37.177Z,2.40
2022-11-22T12:36:09.574Z,2.60
2022-11-22T12:38:44.897Z,2.70
2022-11-22T12:41:18.111Z,2.10
2022-11-22T12:43:56.644Z,2.23
2022-11-22T12:46:32.989Z,2.13
2022-11-22T12:49:07.737Z,2.20
2022-11-22T12:51:45.566Z,2.30
2022-11-22T12:54:22.452Z,2.03
2022-11-22T12:56:56.649Z,2.10
2022-11-22T12:59:37.671Z,1.80
2022-11-22T13:02:18.696Z,3.03
2022-11-22T13:04:53.843Z,7.53
2022-11-22T13:07:35.137Z,2.03
2022-11-22T13:10:10.345Z,1.90
2022-11-22T13:12:44.995Z,2.20
2022-11-22T13:15:22.081Z,2.20
2022-11-22T13:17:52.480Z,2.13
2022-11-22T13:20:25.493Z,2.10
2022-11-22T13:23:06.262Z,1.80
2022-11-22T13:25:55.473Z,1.93
2022-11-22T13:28:31.988Z,1.50
2022-11-22T13:31:19.431Z,1.70
2022-11-22T13:33:58.289Z,1.70
2022-11-22T13:36:41.528Z,2.30
2022-11-22T13:39:19.247Z,2.00
2022-11-22T13:41:57.673Z,2.10
2022-11-22T13:45:02.941Z,2.30
2022-11-22T13:47:43.872Z,1.70
2022-11-22T13:50:59.769Z,2.07
2022-11-22T13:53:32.002Z,1.80
2022-11-22T13:56:27.922Z,1.50
2022-11-22T13:59:08.525Z,1.80
2022-11-22T14:02:03.585Z,2.13
2022-11-22T14:04:43.631Z,2.23
2022-11-22T14:07:38.913Z,1.87
2022-11-22T14:10:30.205Z,1.90
2022-11-22T14:13:19.547Z,2.03
2022-11-22T14:16:10.704Z,1.60
2022-11-22T14:18:54.826Z,1.80
2022-11-22T14:21:51.932Z,3.70
2022-11-22T14:24:35.462Z,2.20
2022-11-22T14:27:14.546Z,2.00
2022-11-22T14:30:07.800Z,1.57
2022-11-22T14:32:53.805Z,1.87
2022-11-22T14:35:34.400Z,1.80
2022-11-22T14:38:35.649Z,1.60
2022-11-22T14:41:35.548Z,1.60
2022-11-22T14:44:10.979Z,1.90
2022-11-22T14:46:53.081Z,1.83
2022-11-22T14:49:33.679Z,1.80
2022-11-22T14:52:05.777Z,1.63
2022-11-22T14:54:49.637Z,1.70
2022-11-22T14:57:24.566Z,1.80
2022-11-22T15:00:22.469Z,1.50
2022-11-22T15:03:24.712Z,1.63
2022-11-22T15:09:19.841Z,1.50
2022-11-22T15:09:46.973Z,1.50
2022-11-22T15:12:17.601Z,1.60
2022-11-22T15:57:47.986Z,1.70
2022-11-22T16:00:24.536Z,1.57
2022-11-22T16:02:58.192Z,1.50
2022-11-22T16:06:08.094Z,1.50
2022-11-22T16:08:30.861Z,1.50
2022-11-22T16:11:03.894Z,1.57
2022-11-22T16:13:40.144Z,1.30
2022-11-22T16:16:21.804Z,1.60
2022-11-22T16:18:53.239Z,1.90
2022-11-22T16:21:27.435Z,1.70
2022-11-22T16:24:13.292Z,1.90
2022-11-22T16:26:43.184Z,2.07
2022-11-22T16:29:32.305Z,2.43
2022-11-22T16:32:04.299Z,2.10
2022-11-22T16:34:34.104Z,1.90
2022-11-22T16:37:03.999Z,2.10
2022-11-22T16:39:34.172Z,2.27
2022-11-22T16:42:04.061Z,1.67
2022-11-22T16:44:36.393Z,1.83
2022-11-22T16:47:06.159Z,1.63
2022-11-22T16:49:35.861Z,2.30
2022-11-22T16:52:05.589Z,1.83
2022-11-22T16:54:35.952Z,2.10
2022-11-22T16:57:06.011Z,1.97
2022-11-22T16:59:38.422Z,1.73
2022-11-22T17:02:13.939Z,1.83
2022-11-22T17:04:44.371Z,1.83
2022-11-22T17:07:14.958Z,1.70
2022-11-22T17:09:45.001Z,1.70
2022-11-22T17:12:17.436Z,1.90
2022-11-22T17:14:51.068Z,1.83
2022-11-22T17:17:21.604Z,2.00
2022-11-22T17:19:53.696Z,2.20
2022-11-22T17:22:24.251Z,2.10
2022-11-22T17:24:54.176Z,2.10
2022-11-22T17:27:23.876Z,2.10
2022-11-22T17:29:56.168Z,2.03
2022-11-22T17:32:25.881Z,1.60
2022-11-22T17:34:56.732Z,1.67
2022-11-22T17:37:29.563Z,2.00
2022-11-22T17:39:59.255Z,1.93
2022-11-22T17:42:28.961Z,2.00
2022-11-22T17:45:01.285Z,1.87
2022-11-22T17:47:31.028Z,2.03
2022-11-22T17:50:00.764Z,1.80
2022-11-22T17:52:30.557Z,2.17
2022-11-22T17:55:05.604Z,2.17
2022-11-22T17:57:36.290Z,1.70
2022-11-22T18:00:10.827Z,1.73
2022-11-22T18:02:40.639Z,2.00
2022-11-22T18:05:11.192Z,1.90
2022-11-22T18:07:41.931Z,1.67
2022-11-22T18:10:13.581Z,1.93
2022-11-22T18:12:58.777Z,2.00
2022-11-22T18:15:36.044Z,2.00
2022-11-22T18:18:05.772Z,1.93
2022-11-22T18:20:35.489Z,2.00
2022-11-22T18:23:05.254Z,1.80
2022-11-22T18:25:35.260Z,1.93
2022-11-22T18:28:05.145Z,2.00
2022-11-22T18:30:38.004Z,2.00
2022-11-22T18:33:08.147Z,1.77
2022-11-22T18:35:37.837Z,2.00
2022-11-22T18:38:08.163Z,2.03
2022-11-22T18:40:37.860Z,2.17
2022-11-22T18:43:52.638Z,2.83
2022-11-22T18:46:25.251Z,2.27
2022-11-22T18:48:55.026Z,1.93
2022-11-22T18:51:24.846Z,2.10
2022-11-22T18:53:54.677Z,2.23
2022-11-22T18:56:24.522Z,2.37
2022-11-22T18:58:54.417Z,2.60
2022-11-22T19:01:27.272Z,2.47
2022-11-22T19:03:57.052Z,2.20
2022-11-22T19:06:26.898Z,2.63
2022-11-22T19:08:56.653Z,2.50
2022-11-22T19:11:26.422Z,2.17
2022-11-22T19:13:56.196Z,2.17
2022-11-22T19:16:30.552Z,2.30
2022-11-22T19:19:01.150Z,2.17
2022-11-22T19:21:31.779Z,2.20
2022-11-22T19:24:01.825Z,1.70
2022-11-22T19:26:31.603Z,2.20
2022-11-22T19:29:04.948Z,1.80
2022-11-22T19:31:37.463Z,2.07
2022-11-22T19:34:07.473Z,2.50
2022-11-22T19:36:37.872Z,2.47
2022-11-22T19:39:09.198Z,2.57
2022-11-22T19:41:43.145Z,2.40
2022-11-22T19:44:13.781Z,2.60
2022-11-22T19:46:49.265Z,2.80
2022-11-22T19:49:19.110Z,2.70
2022-11-22T19:51:48.796Z,2.60
2022-11-22T19:54:18.480Z,2.87
2022-11-22T19:56:48.307Z,2.50
2022-11-22T19:59:18.545Z,2.80
2022-11-22T20:01:51.012Z,2.90
2022-11-22T20:04:20.815Z,3.07
2022-11-22T20:06:50.662Z,2.23
2022-11-22T20:09:22.724Z,2.80
2022-11-22T20:11:52.559Z,3.00
2022-11-22T20:14:22.357Z,3.13
2022-11-22T20:16:54.780Z,2.87
2022-11-22T20:19:24.887Z,3.43
2022-11-22T20:21:56.445Z,3.30
2022-11-22T20:24:27.639Z,3.27
2022-11-22T20:26:57.352Z,3.10
2022-11-22T20:29:27.925Z,3.37
2022-11-22T20:32:01.716Z,3.40
2022-11-22T20:34:33.867Z,3.57
2022-11-22T20:37:07.141Z,3.40
2022-11-22T20:39:37.614Z,2.60
2022-11-22T20:42:33.069Z,3.00
2022-11-22T20:44:58.760Z,2.93
2022-11-22T20:47:31.192Z,2.80
2022-11-22T20:50:00.930Z,3.10
2022-11-22T20:52:30.644Z,3.20
2022-11-22T20:55:04.875Z,3.10
2022-11-22T20:57:35.137Z,2.87
2022-11-22T21:00:06.342Z,3.23
2022-11-22T21:02:38.786Z,3.27
2022-11-22T21:05:12.215Z,3.30
2022-11-22T21:07:42.038Z,3.87
2022-11-22T21:10:12.255Z,4.10
2022-11-22T21:12:41.956Z,4.27
2022-11-22T21:15:15.307Z,5.60
2022-11-22T21:18:17.241Z,5.13
2022-11-22T21:20:38.924Z,5.70
2022-11-22T21:23:08.780Z,5.03
2022-11-22T21:25:38.465Z,5.23
2022-11-22T21:28:09.284Z,5.70
2022-11-22T21:30:39.307Z,6.00
2022-11-22T21:33:11.583Z,5.60
2022-11-22T21:35:45.010Z,6.20
2022-11-22T21:38:16.388Z,6.70
2022-11-22T21:40:58.380Z,6.53
2022-11-22T21:43:35.287Z,5.90
2022-11-22T21:46:05.027Z,6.87
2022-11-22T21:48:37.325Z,6.40
2022-11-22T21:51:07.163Z,6.97
2022-11-22T21:53:36.881Z,7.10
2022-11-22T21:56:06.719Z,7.50
2022-11-22T21:58:36.422Z,6.53
2022-11-22T22:01:11.002Z,7.33
2022-11-22T22:03:44.804Z,8.53
2022-11-22T22:06:14.558Z,7.87
2022-11-22T22:08:44.259Z,7.57
2022-11-22T22:11:13.934Z,8.00
2022-11-22T22:13:43.703Z,7.40
2022-11-22T22:16:19.035Z,7.97
2022-11-22T22:18:52.089Z,7.40
2022-11-22T22:21:22.806Z,7.53
2022-11-22T22:23:53.628Z,8.37
2022-11-22T22:26:23.403Z,8.60
2022-11-22T22:28:53.099Z,7.30
2022-11-22T22:31:24.295Z,8.00
2022-11-22T22:33:58.507Z,7.67
2022-11-22T22:36:29.779Z,8.47
2022-11-22T22:38:59.465Z,8.23
2022-11-22T22:41:29.219Z,8.57
2022-11-22T22:43:58.929Z,9.13
2022-11-22T22:46:28.647Z,8.60
2022-11-22T22:49:00.995Z,9.03
2022-11-22T22:51:33.476Z,8.27
2022-11-22T22:54:04.347Z,9.50
2022-11-22T22:56:34.685Z,9.17
2022-11-22T22:59:05.347Z,8.33
2022-11-22T23:01:35.113Z,10.00
2022-11-22T23:04:08.884Z,8.87
2022-11-22T23:06:40.352Z,9.67
2022-11-22T23:09:12.165Z,9.27
2022-11-22T23:11:54.480Z,9.37
2022-11-22T23:14:26.041Z,10.13
2022-11-22T23:16:58.262Z,10.03
2022-11-22T23:19:31.161Z,9.23
2022-11-22T23:22:01.035Z,9.20
2022-11-22T23:24:33.754Z,9.73
2022-11-22T23:27:05.111Z,9.83
2022-11-22T23:29:36.915Z,10.30
2022-11-22T23:32:07.073Z,10.07
2022-11-22T23:34:39.475Z,10.73
2022-11-22T23:37:09.256Z,9.40
2022-11-22T23:39:39.032Z,10.13
2022-11-22T23:42:09.022Z,10.40
2022-11-22T23:44:38.748Z,10.67
2022-11-22T23:47:09.791Z,10.03
2022-11-22T23:49:42.112Z,10.33
2022-11-22T23:52:11.873Z,10.17
2022-11-22T23:54:41.581Z,9.90
2022-11-22T23:57:11.308Z,10.03
2022-11-22T23:59:41.023Z,9.47
